sensor_id;sensor_type;location;lat;lon;timestamp;temperature;humidity
7204;DHT22;3643;52.460;13.322;2022-12-07T00:05:49;1.90;99.90
7204;DHT22;3643;52.460;13.322;2022-12-07T00:08:18;2.00;99.90
7204;DHT22;3643;52.460;13.322;2022-12-07T00:11:11;2.00;99.90
7204;DHT22;3643;52.460;13.322;2022-12-07T00:13:40;2.00;99.90
7204;DHT22;3643;52.460;13.322;2022-12-07T00:16:31;2.00;99.90
7204;DHT22;3643;52.460;13.322;2022-12-07T00:19:10;1.90;99.90
7204;DHT22;3643;52.460;13.322;2022-12-07T00:21:53;1.90;99.90
7204;DHT22;3643;52.460;13.322;2022-12-07T00:24:21;1.90;99.90
7204;DHT22;3643;52.460;13.322;2022-12-07T00:27:17;1.90;99.90
7204;DHT22;3643;52.460;13.322;2022-12-07T00:29:45;1.90;99.90
7204;DHT22;3643;52.460;13.322;2022-12-07T00:36:03;1.70;99.90
7204;DHT22;3643;52.460;13.322;2022-12-07T00:38:40;1.60;99.90
7204;DHT22;3643;52.460;13.322;2022-12-07T00:41:11;1.50;99.90
7204;DHT22;3643;52.460;13.322;2022-12-07T00:47:31;1.30;99.90
7204;DHT22;3643;52.460;13.322;2022-12-07T00:50:00;1.20;99.90
7204;DHT22;3643;52.460;13.322;2022-12-07T00:52:43;1.20;99.90
7204;DHT22;3643;52.460;13.322;2022-12-07T00:55:11;1.20;99.90
7204;DHT22;3643;52.460;13.322;2022-12-07T00:57:40;1.20;99.90
7204;DHT22;3643;52.460;13.322;2022-12-07T01:04:41;1.20;99.90
7204;DHT22;3643;52.460;13.322;2022-12-07T01:07:09;1.20;99.90
7204;DHT22;3643;52.460;13.322;2022-12-07T01:10:05;1.20;99.90
7204;DHT22;3643;52.460;13.322;2022-12-07T01:12:52;1.20;99.90
7204;DHT22;3643;52.460;13.322;2022-12-07T01:15:33;1.20;99.90
7204;DHT22;3643;52.460;13.322;2022-12-07T01:18:01;1.30;99.90
7204;DHT22;3643;52.460;13.322;2022-12-07T01:20:35;1.30;99.90
7204;DHT22;3643;52.460;13.322;2022-12-07T01:23:04;1.30;99.90
7204;DHT22;3643;52.460;13.322;2022-12-07T01:26:03;1.30;99.90
7204;DHT22;3643;52.460;13.322;2022-12-07T01:28:32;1.30;99.90
7204;DHT22;3643;52.460;13.322;2022-12-07T01:31:03;1.30;99.90
7204;DHT22;3643;52.460;13.322;2022-12-07T01:33:34;1.30;99.90
7204;DHT22;3643;52.460;13.322;2022-12-07T01:36:22;1.40;99.90
7204;DHT22;3643;52.460;13.322;2022-12-07T01:39:06;1.30;99.90
7204;DHT22;3643;52.460;13.322;2022-12-07T01:41:39;1.30;99.90
7204;DHT22;3643;52.460;13.322;2022-12-07T01:44:15;1.30;99.90
7204;DHT22;3643;52.460;13.322;2022-12-07T01:46:47;1.30;99.90
7204;DHT22;3643;52.460;13.322;2022-12-07T01:49:26;1.30;99.90
7204;DHT22;3643;52.460;13.322;2022-12-07T01:52:04;1.30;99.90
7204;DHT22;3643;52.460;13.322;2022-12-07T01:54:34;1.30;99.90
7204;DHT22;3643;52.460;13.322;2022-12-07T01:57:05;1.30;99.90
7204;DHT22;3643;52.460;13.322;2022-12-07T01:59:34;1.30;99.90
7204;DHT22;3643;52.460;13.322;2022-12-07T02:02:07;1.30;99.90
7204;DHT22;3643;52.460;13.322;2022-12-07T02:04:38;1.30;99.90
7204;DHT22;3643;52.460;13.322;2022-12-07T02:07:07;1.20;99.90
7204;DHT22;3643;52.460;13.322;2022-12-07T02:09:36;1.20;99.90
7204;DHT22;3643;52.460;13.322;2022-12-07T02:12:06;1.20;99.90
7204;DHT22;3643;52.460;13.322;2022-12-07T02:14:34;1.20;99.90
7204;DHT22;3643;52.460;13.322;2022-12-07T02:17:10;1.20;99.90
7204;DHT22;3643;52.460;13.322;2022-12-07T02:20:17;1.20;99.90
7204;DHT22;3643;52.460;13.322;2022-12-07T02:23:21;1.80;99.90
7204;DHT22;3643;52.460;13.322;2022-12-07T02:26:18;1.20;99.90
7204;DHT22;3643;52.460;13.322;2022-12-07T02:29:05;1.10;99.90
7204;DHT22;3643;52.460;13.322;2022-12-07T02:31:37;1.10;99.90
7204;DHT22;3643;52.460;13.322;2022-12-07T02:34:11;1.10;99.90
7204;DHT22;3643;52.460;13.322;2022-12-07T02:36:45;1.10;99.90
7204;DHT22;3643;52.460;13.322;2022-12-07T02:39:20;1.10;99.90
7204;DHT22;3643;52.460;13.322;2022-12-07T02:41:56;1.10;99.90
7204;DHT22;3643;52.460;13.322;2022-12-07T02:44:29;1.10;99.90
7204;DHT22;3643;52.460;13.322;2022-12-07T02:47:03;1.10;99.90
7204;DHT22;3643;52.460;13.322;2022-12-07T02:49:33;1.10;99.90
7204;DHT22;3643;52.460;13.322;2022-12-07T02:52:02;1.00;99.90
7204;DHT22;3643;52.460;13.322;2022-12-07T02:54:30;1.00;99.90
7204;DHT22;3643;52.460;13.322;2022-12-07T02:57:04;1.00;99.90
7204;DHT22;3643;52.460;13.322;2022-12-07T02:59:46;1.00;99.90
7204;DHT22;3643;52.460;13.322;2022-12-07T03:02:24;1.00;99.90
7204;DHT22;3643;52.460;13.322;2022-12-07T03:05:09;1.00;99.90
7204;DHT22;3643;52.460;13.322;2022-12-07T03:07:48;1.10;99.90
7204;DHT22;3643;52.460;13.322;2022-12-07T03:10:24;1.10;99.90
7204;DHT22;3643;52.460;13.322;2022-12-07T03:13:02;1.10;99.90
7204;DHT22;3643;52.460;13.322;2022-12-07T03:15:38;1.10;99.90
7204;DHT22;3643;52.460;13.322;2022-12-07T03:18:11;1.10;99.90
7204;DHT22;3643;52.460;13.322;2022-12-07T03:20:42;1.00;99.90
7204;DHT22;3643;52.460;13.322;2022-12-07T03:23:12;1.10;99.90
7204;DHT22;3643;52.460;13.322;2022-12-07T03:25:47;1.10;99.90
7204;DHT22;3643;52.460;13.322;2022-12-07T03:28:18;1.10;99.90
7204;DHT22;3643;52.460;13.322;2022-12-07T03:30:52;1.10;99.90
7204;DHT22;3643;52.460;13.322;2022-12-07T03:33:29;1.10;99.90
7204;DHT22;3643;52.460;13.322;2022-12-07T03:36:04;1.00;99.90
7204;DHT22;3643;52.460;13.322;2022-12-07T03:38:36;1.00;99.90
7204;DHT22;3643;52.460;13.322;2022-12-07T03:41:11;1.00;99.90
7204;DHT22;3643;52.460;13.322;2022-12-07T03:43:43;1.00;99.90
7204;DHT22;3643;52.460;13.322;2022-12-07T03:46:19;1.00;99.90
7204;DHT22;3643;52.460;13.322;2022-12-07T03:48:56;1.00;99.90
7204;DHT22;3643;52.460;13.322;2022-12-07T03:51:34;1.00;99.90
7204;DHT22;3643;52.460;13.322;2022-12-07T03:54:10;1.10;99.90
7204;DHT22;3643;52.460;13.322;2022-12-07T03:56:43;1.10;99.90
7204;DHT22;3643;52.460;13.322;2022-12-07T03:59:14;1.10;99.90
7204;DHT22;3643;52.460;13.322;2022-12-07T04:01:45;1.10;99.90
7204;DHT22;3643;52.460;13.322;2022-12-07T04:04:19;1.20;99.90
7204;DHT22;3643;52.460;13.322;2022-12-07T04:06:47;1.20;99.90
7204;DHT22;3643;52.460;13.322;2022-12-07T04:09:16;1.20;99.90
7204;DHT22;3643;52.460;13.322;2022-12-07T04:11:44;1.20;99.90
7204;DHT22;3643;52.460;13.322;2022-12-07T04:14:13;1.20;99.90
7204;DHT22;3643;52.460;13.322;2022-12-07T04:16:50;1.10;99.90
7204;DHT22;3643;52.460;13.322;2022-12-07T04:19:20;1.10;99.90
7204;DHT22;3643;52.460;13.322;2022-12-07T04:21:49;1.00;99.90
7204;DHT22;3643;52.460;13.322;2022-12-07T04:24:18;1.00;99.90
7204;DHT22;3643;52.460;13.322;2022-12-07T04:26:46;0.90;99.90
7204;DHT22;3643;52.460;13.322;2022-12-07T04:29:16;0.90;99.90
7204;DHT22;3643;52.460;13.322;2022-12-07T04:31:45;0.90;99.90
7204;DHT22;3643;52.460;13.322;2022-12-07T04:34:16;1.00;99.90
7204;DHT22;3643;52.460;13.322;2022-12-07T04:36:46;1.00;99.90
7204;DHT22;3643;52.460;13.322;2022-12-07T04:39:20;1.00;99.90
7204;DHT22;3643;52.460;13.322;2022-12-07T04:41:49;1.00;99.90
7204;DHT22;3643;52.460;13.322;2022-12-07T04:44:19;1.10;99.90
7204;DHT22;3643;52.460;13.322;2022-12-07T04:46:48;1.10;99.90
7204;DHT22;3643;52.460;13.322;2022-12-07T04:49:19;1.10;99.90
7204;DHT22;3643;52.460;13.322;2022-12-07T04:51:48;1.20;99.90
7204;DHT22;3643;52.460;13.322;2022-12-07T04:54:17;1.00;99.90
7204;DHT22;3643;52.460;13.322;2022-12-07T04:56:47;1.20;99.90
7204;DHT22;3643;52.460;13.322;2022-12-07T04:59:17;1.20;99.90
7204;DHT22;3643;52.460;13.322;2022-12-07T05:01:45;1.20;99.90
7204;DHT22;3643;52.460;13.322;2022-12-07T05:04:15;1.30;99.90
7204;DHT22;3643;52.460;13.322;2022-12-07T05:06:46;1.30;99.90
7204;DHT22;3643;52.460;13.322;2022-12-07T05:09:14;1.30;99.90
7204;DHT22;3643;52.460;13.322;2022-12-07T05:11:42;1.40;99.90
7204;DHT22;3643;52.460;13.322;2022-12-07T05:14:13;1.40;99.90
7204;DHT22;3643;52.460;13.322;2022-12-07T05:16:42;1.40;99.90
7204;DHT22;3643;52.460;13.322;2022-12-07T05:19:11;1.40;99.90
7204;DHT22;3643;52.460;13.322;2022-12-07T05:21:40;1.40;99.90
7204;DHT22;3643;52.460;13.322;2022-12-07T05:24:13;1.50;99.90
7204;DHT22;3643;52.460;13.322;2022-12-07T05:26:42;1.50;99.90
7204;DHT22;3643;52.460;13.322;2022-12-07T05:29:11;1.50;99.90
7204;DHT22;3643;52.460;13.322;2022-12-07T05:31:40;1.60;99.90
7204;DHT22;3643;52.460;13.322;2022-12-07T05:34:09;1.60;99.90
7204;DHT22;3643;52.460;13.322;2022-12-07T05:36:39;1.70;99.90
7204;DHT22;3643;52.460;13.322;2022-12-07T05:39:08;1.70;99.90
7204;DHT22;3643;52.460;13.322;2022-12-07T05:41:39;1.70;99.90
7204;DHT22;3643;52.460;13.322;2022-12-07T05:44:25;1.70;99.90
7204;DHT22;3643;52.460;13.322;2022-12-07T05:46:53;1.80;99.90
7204;DHT22;3643;52.460;13.322;2022-12-07T05:49:24;1.80;99.90
7204;DHT22;3643;52.460;13.322;2022-12-07T05:51:52;1.90;99.90
7204;DHT22;3643;52.460;13.322;2022-12-07T05:54:20;1.90;99.90
7204;DHT22;3643;52.460;13.322;2022-12-07T05:56:50;1.90;99.90
7204;DHT22;3643;52.460;13.322;2022-12-07T05:59:18;1.90;99.90
7204;DHT22;3643;52.460;13.322;2022-12-07T06:01:52;2.00;99.90
7204;DHT22;3643;52.460;13.322;2022-12-07T06:04:22;2.00;99.90
7204;DHT22;3643;52.460;13.322;2022-12-07T06:06:51;2.00;99.90
7204;DHT22;3643;52.460;13.322;2022-12-07T06:09:22;2.10;99.90
7204;DHT22;3643;52.460;13.322;2022-12-07T06:11:53;2.10;99.90
7204;DHT22;3643;52.460;13.322;2022-12-07T06:14:40;2.10;99.90
7204;DHT22;3643;52.460;13.322;2022-12-07T06:17:09;3.00;99.90
7204;DHT22;3643;52.460;13.322;2022-12-07T06:19:37;2.10;99.90
7204;DHT22;3643;52.460;13.322;2022-12-07T06:22:06;2.20;99.90
7204;DHT22;3643;52.460;13.322;2022-12-07T06:24:36;2.10;99.90
7204;DHT22;3643;52.460;13.322;2022-12-07T06:27:05;2.20;99.90
7204;DHT22;3643;52.460;13.322;2022-12-07T06:29:34;2.20;99.90
7204;DHT22;3643;52.460;13.322;2022-12-07T06:32:02;2.20;99.90
7204;DHT22;3643;52.460;13.322;2022-12-07T06:34:31;2.20;99.90
7204;DHT22;3643;52.460;13.322;2022-12-07T06:37:01;2.20;99.90
7204;DHT22;3643;52.460;13.322;2022-12-07T06:39:29;2.20;99.90
7204;DHT22;3643;52.460;13.322;2022-12-07T06:41:59;2.30;99.90
7204;DHT22;3643;52.460;13.322;2022-12-07T06:44:28;2.30;99.90
7204;DHT22;3643;52.460;13.322;2022-12-07T06:46:56;2.30;99.90
7204;DHT22;3643;52.460;13.322;2022-12-07T06:49:45;2.30;99.90
7204;DHT22;3643;52.460;13.322;2022-12-07T06:52:13;2.40;99.90
7204;DHT22;3643;52.460;13.322;2022-12-07T06:54:41;2.40;99.90
7204;DHT22;3643;52.460;13.322;2022-12-07T06:57:09;2.50;99.90
7204;DHT22;3643;52.460;13.322;2022-12-07T06:59:40;2.50;99.90
7204;DHT22;3643;52.460;13.322;2022-12-07T07:02:09;3.60;99.90
7204;DHT22;3643;52.460;13.322;2022-12-07T07:04:37;2.50;99.90
7204;DHT22;3643;52.460;13.322;2022-12-07T07:07:08;2.60;99.90
7204;DHT22;3643;52.460;13.322;2022-12-07T07:09:36;2.60;99.90
7204;DHT22;3643;52.460;13.322;2022-12-07T07:12:04;2.60;99.90
7204;DHT22;3643;52.460;13.322;2022-12-07T07:14:33;2.60;99.90
7204;DHT22;3643;52.460;13.322;2022-12-07T07:17:05;2.70;99.90
7204;DHT22;3643;52.460;13.322;2022-12-07T07:19:34;2.70;99.90
7204;DHT22;3643;52.460;13.322;2022-12-07T07:22:03;2.70;99.90
7204;DHT22;3643;52.460;13.322;2022-12-07T07:24:31;2.80;99.90
7204;DHT22;3643;52.460;13.322;2022-12-07T07:27:00;2.80;99.90
7204;DHT22;3643;52.460;13.322;2022-12-07T07:29:28;2.80;99.90
7204;DHT22;3643;52.460;13.322;2022-12-07T07:31:56;2.80;99.90
7204;DHT22;3643;52.460;13.322;2022-12-07T07:34:34;2.80;99.90
7204;DHT22;3643;52.460;13.322;2022-12-07T07:37:03;2.80;99.90
7204;DHT22;3643;52.460;13.322;2022-12-07T07:39:31;2.80;99.90
7204;DHT22;3643;52.460;13.322;2022-12-07T07:41:59;2.80;99.90
7204;DHT22;3643;52.460;13.322;2022-12-07T07:44:28;2.80;99.90
7204;DHT22;3643;52.460;13.322;2022-12-07T07:47:01;2.70;99.90
7204;DHT22;3643;52.460;13.322;2022-12-07T07:49:29;2.70;99.90
7204;DHT22;3643;52.460;13.322;2022-12-07T07:51:59;2.70;99.90
7204;DHT22;3643;52.460;13.322;2022-12-07T07:54:27;2.70;99.90
7204;DHT22;3643;52.460;13.322;2022-12-07T07:56:55;2.70;99.90
7204;DHT22;3643;52.460;13.322;2022-12-07T07:59:24;2.70;99.90
7204;DHT22;3643;52.460;13.322;2022-12-07T08:01:52;2.70;99.90
7204;DHT22;3643;52.460;13.322;2022-12-07T08:04:21;2.70;99.90
7204;DHT22;3643;52.460;13.322;2022-12-07T08:06:49;2.70;99.90
7204;DHT22;3643;52.460;13.322;2022-12-07T08:09:19;2.80;99.90
7204;DHT22;3643;52.460;13.322;2022-12-07T08:11:48;2.80;99.90
7204;DHT22;3643;52.460;13.322;2022-12-07T08:14:16;2.90;99.90
7204;DHT22;3643;52.460;13.322;2022-12-07T08:16:45;2.90;99.90
7204;DHT22;3643;52.460;13.322;2022-12-07T08:19:14;2.90;99.90
7204;DHT22;3643;52.460;13.322;2022-12-07T08:21:49;2.90;99.90
7204;DHT22;3643;52.460;13.322;2022-12-07T08:24:20;2.90;99.90
7204;DHT22;3643;52.460;13.322;2022-12-07T08:26:48;2.80;99.90
7204;DHT22;3643;52.460;13.322;2022-12-07T08:29:17;2.90;99.90
7204;DHT22;3643;52.460;13.322;2022-12-07T08:31:46;3.00;99.90
7204;DHT22;3643;52.460;13.322;2022-12-07T08:34:15;2.90;99.90
7204;DHT22;3643;52.460;13.322;2022-12-07T08:36:44;2.90;99.90
7204;DHT22;3643;52.460;13.322;2022-12-07T08:39:14;2.90;99.90
7204;DHT22;3643;52.460;13.322;2022-12-07T08:41:59;2.80;99.90
7204;DHT22;3643;52.460;13.322;2022-12-07T08:44:27;2.80;99.90
7204;DHT22;3643;52.460;13.322;2022-12-07T08:46:58;2.80;99.90
7204;DHT22;3643;52.460;13.322;2022-12-07T08:49:30;2.90;99.90
7204;DHT22;3643;52.460;13.322;2022-12-07T08:52:01;2.80;99.90
7204;DHT22;3643;52.460;13.322;2022-12-07T08:54:34;2.90;99.90
7204;DHT22;3643;52.460;13.322;2022-12-07T08:57:05;2.80;99.90
7204;DHT22;3643;52.460;13.322;2022-12-07T08:59:34;2.90;99.90
7204;DHT22;3643;52.460;13.322;2022-12-07T09:02:04;2.90;99.90
7204;DHT22;3643;52.460;13.322;2022-12-07T09:04:35;2.90;99.90
7204;DHT22;3643;52.460;13.322;2022-12-07T09:07:03;2.80;99.90
7204;DHT22;3643;52.460;13.322;2022-12-07T09:09:32;2.80;99.90
7204;DHT22;3643;52.460;13.322;2022-12-07T09:12:00;2.70;99.90
7204;DHT22;3643;52.460;13.322;2022-12-07T09:14:30;2.70;99.90
7204;DHT22;3643;52.460;13.322;2022-12-07T09:17:05;2.80;99.90
7204;DHT22;3643;52.460;13.322;2022-12-07T09:19:34;2.70;99.90
7204;DHT22;3643;52.460;13.322;2022-12-07T09:22:03;2.70;99.90
7204;DHT22;3643;52.460;13.322;2022-12-07T09:24:33;2.70;99.90
7204;DHT22;3643;52.460;13.322;2022-12-07T09:27:02;2.60;99.90
7204;DHT22;3643;52.460;13.322;2022-12-07T09:29:31;3.00;99.90
7204;DHT22;3643;52.460;13.322;2022-12-07T09:32:00;2.70;99.90
7204;DHT22;3643;52.460;13.322;2022-12-07T09:34:35;2.70;99.90
7204;DHT22;3643;52.460;13.322;2022-12-07T09:37:05;2.80;99.90
7204;DHT22;3643;52.460;13.322;2022-12-07T09:39:33;2.70;99.90
7204;DHT22;3643;52.460;13.322;2022-12-07T09:42:04;2.70;99.90
7204;DHT22;3643;52.460;13.322;2022-12-07T09:44:36;2.60;99.90
7204;DHT22;3643;52.460;13.322;2022-12-07T09:47:10;2.60;99.90
7204;DHT22;3643;52.460;13.322;2022-12-07T09:49:39;2.60;99.90
7204;DHT22;3643;52.460;13.322;2022-12-07T09:52:19;2.60;99.90
7204;DHT22;3643;52.460;13.322;2022-12-07T09:54:49;2.70;99.90
7204;DHT22;3643;52.460;13.322;2022-12-07T09:57:20;2.60;99.90
7204;DHT22;3643;52.460;13.322;2022-12-07T09:59:51;2.60;99.90
7204;DHT22;3643;52.460;13.322;2022-12-07T10:02:25;2.60;99.90
7204;DHT22;3643;52.460;13.322;2022-12-07T10:04:57;2.40;99.90
7204;DHT22;3643;52.460;13.322;2022-12-07T10:07:26;2.40;99.90
7204;DHT22;3643;52.460;13.322;2022-12-07T10:09:55;2.40;99.90
7204;DHT22;3643;52.460;13.322;2022-12-07T10:12:23;2.50;99.90
7204;DHT22;3643;52.460;13.322;2022-12-07T10:14:59;2.50;99.90
7204;DHT22;3643;52.460;13.322;2022-12-07T10:17:48;2.70;99.90
7204;DHT22;3643;52.460;13.322;2022-12-07T10:20:22;2.70;99.90
7204;DHT22;3643;52.460;13.322;2022-12-07T10:22:56;2.60;99.90
7204;DHT22;3643;52.460;13.322;2022-12-07T10:25:27;2.70;99.90
7204;DHT22;3643;52.460;13.322;2022-12-07T10:28:02;2.90;99.90
7204;DHT22;3643;52.460;13.322;2022-12-07T10:30:32;2.70;99.90
7204;DHT22;3643;52.460;13.322;2022-12-07T10:33:01;2.70;99.90
7204;DHT22;3643;52.460;13.322;2022-12-07T10:35:29;2.70;99.90
7204;DHT22;3643;52.460;13.322;2022-12-07T10:37:59;2.80;99.90
7204;DHT22;3643;52.460;13.322;2022-12-07T10:40:32;2.70;99.90
7204;DHT22;3643;52.460;13.322;2022-12-07T10:43:12;2.60;99.90
7204;DHT22;3643;52.460;13.322;2022-12-07T10:49:05;2.80;99.90
7204;DHT22;3643;52.460;13.322;2022-12-07T10:51:42;2.90;99.90
7204;DHT22;3643;52.460;13.322;2022-12-07T10:54:18;3.00;99.90
7204;DHT22;3643;52.460;13.322;2022-12-07T10:57:06;3.00;99.90
7204;DHT22;3643;52.460;13.322;2022-12-07T11:02:54;3.20;99.90
7204;DHT22;3643;52.460;13.322;2022-12-07T11:05:30;3.30;99.90
7204;DHT22;3643;52.460;13.322;2022-12-07T11:08:09;3.40;99.90
7204;DHT22;3643;52.460;13.322;2022-12-07T11:10:44;3.50;99.90
7204;DHT22;3643;52.460;13.322;2022-12-07T11:13:24;3.50;99.90
7204;DHT22;3643;52.460;13.322;2022-12-07T11:16:13;3.50;99.90
7204;DHT22;3643;52.460;13.322;2022-12-07T11:18:57;3.60;99.90
7204;DHT22;3643;52.460;13.322;2022-12-07T11:21:33;3.60;99.90
7204;DHT22;3643;52.460;13.322;2022-12-07T11:24:10;3.70;99.90
7204;DHT22;3643;52.460;13.322;2022-12-07T11:26:56;3.70;99.90
7204;DHT22;3643;52.460;13.322;2022-12-07T11:29:46;3.70;99.90
7204;DHT22;3643;52.460;13.322;2022-12-07T11:32:22;4.80;99.90
7204;DHT22;3643;52.460;13.322;2022-12-07T11:34:59;3.70;99.90
7204;DHT22;3643;52.460;13.322;2022-12-07T11:37:34;3.70;99.90
7204;DHT22;3643;52.460;13.322;2022-12-07T11:40:14;3.70;99.90
7204;DHT22;3643;52.460;13.322;2022-12-07T11:42:52;3.80;99.90
7204;DHT22;3643;52.460;13.322;2022-12-07T11:45:24;3.80;99.90
7204;DHT22;3643;52.460;13.322;2022-12-07T11:47:57;3.80;99.90
7204;DHT22;3643;52.460;13.322;2022-12-07T11:50:32;3.50;99.90
7204;DHT22;3643;52.460;13.322;2022-12-07T11:53:10;3.90;99.90
7204;DHT22;3643;52.460;13.322;2022-12-07T11:55:49;3.90;99.90
7204;DHT22;3643;52.460;13.322;2022-12-07T11:58:31;3.90;99.90
7204;DHT22;3643;52.460;13.322;2022-12-07T12:01:13;4.00;99.90
7204;DHT22;3643;52.460;13.322;2022-12-07T12:03:45;4.00;99.90
7204;DHT22;3643;52.460;13.322;2022-12-07T12:06:20;4.00;99.90
7204;DHT22;3643;52.460;13.322;2022-12-07T12:08:55;4.10;99.90
7204;DHT22;3643;52.460;13.322;2022-12-07T12:15:03;4.20;99.90
7204;DHT22;3643;52.460;13.322;2022-12-07T12:17:56;4.20;99.90
7204;DHT22;3643;52.460;13.322;2022-12-07T12:20:30;4.20;99.90
7204;DHT22;3643;52.460;13.322;2022-12-07T12:23:05;4.10;99.90
7204;DHT22;3643;52.460;13.322;2022-12-07T12:25:40;4.20;99.90
7204;DHT22;3643;52.460;13.322;2022-12-07T12:28:22;4.20;99.90
7204;DHT22;3643;52.460;13.322;2022-12-07T12:31:08;4.20;99.90
7204;DHT22;3643;52.460;13.322;2022-12-07T12:33:38;4.20;99.90
7204;DHT22;3643;52.460;13.322;2022-12-07T12:36:44;4.10;99.90
7204;DHT22;3643;52.460;13.322;2022-12-07T12:42:00;4.10;99.90
7204;DHT22;3643;52.460;13.322;2022-12-07T12:50:32;4.20;99.90
7204;DHT22;3643;52.460;13.322;2022-12-07T12:53:13;4.20;99.90
7204;DHT22;3643;52.460;13.322;2022-12-07T12:58:40;3.60;99.90
7204;DHT22;3643;52.460;13.322;2022-12-07T13:04:25;4.30;99.90
7204;DHT22;3643;52.460;13.322;2022-12-07T13:06:54;4.30;99.90
7204;DHT22;3643;52.460;13.322;2022-12-07T13:09:25;4.30;99.90
7204;DHT22;3643;52.460;13.322;2022-12-07T13:12:01;4.30;99.90
7204;DHT22;3643;52.460;13.322;2022-12-07T13:14:51;4.40;99.90
7204;DHT22;3643;52.460;13.322;2022-12-07T13:17:58;4.40;99.90
7204;DHT22;3643;52.460;13.322;2022-12-07T13:20:45;4.40;99.90
7204;DHT22;3643;52.460;13.322;2022-12-07T13:23:18;4.50;99.90
7204;DHT22;3643;52.460;13.322;2022-12-07T13:25:53;4.50;99.90
7204;DHT22;3643;52.460;13.322;2022-12-07T13:28:26;4.50;99.90
7204;DHT22;3643;52.460;13.322;2022-12-07T13:31:20;4.50;99.90
7204;DHT22;3643;52.460;13.322;2022-12-07T13:33:50;4.40;99.90
7204;DHT22;3643;52.460;13.322;2022-12-07T13:36:21;4.40;99.90
7204;DHT22;3643;52.460;13.322;2022-12-07T13:38:53;4.30;99.90
7204;DHT22;3643;52.460;13.322;2022-12-07T13:41:22;4.30;99.90
7204;DHT22;3643;52.460;13.322;2022-12-07T13:43:59;4.20;99.90
7204;DHT22;3643;52.460;13.322;2022-12-07T13:46:45;4.20;99.90
7204;DHT22;3643;52.460;13.322;2022-12-07T13:49:23;4.10;99.90
7204;DHT22;3643;52.460;13.322;2022-12-07T13:51:54;4.10;99.90
7204;DHT22;3643;52.460;13.322;2022-12-07T13:54:22;4.10;99.90
7204;DHT22;3643;52.460;13.322;2022-12-07T13:56:51;4.00;99.90
7204;DHT22;3643;52.460;13.322;2022-12-07T13:59:23;4.00;99.90
7204;DHT22;3643;52.460;13.322;2022-12-07T14:01:53;4.00;99.90
7204;DHT22;3643;52.460;13.322;2022-12-07T14:04:31;4.00;99.90
7204;DHT22;3643;52.460;13.322;2022-12-07T14:07:01;3.90;99.90
7204;DHT22;3643;52.460;13.322;2022-12-07T14:09:30;3.00;99.90
7204;DHT22;3643;52.460;13.322;2022-12-07T14:11:58;4.00;99.90
7204;DHT22;3643;52.460;13.322;2022-12-07T14:14:29;4.00;99.90
7204;DHT22;3643;52.460;13.322;2022-12-07T14:17:16;4.00;99.90
7204;DHT22;3643;52.460;13.322;2022-12-07T14:22:24;4.00;99.90
7204;DHT22;3643;52.460;13.322;2022-12-07T14:25:18;4.00;99.90
7204;DHT22;3643;52.460;13.322;2022-12-07T14:27:52;4.00;99.90
7204;DHT22;3643;52.460;13.322;2022-12-07T14:30:24;3.90;99.90
7204;DHT22;3643;52.460;13.322;2022-12-07T14:32:58;3.90;99.90
7204;DHT22;3643;52.460;13.322;2022-12-07T14:35:28;3.90;99.90
7204;DHT22;3643;52.460;13.322;2022-12-07T14:37:57;3.90;99.90
7204;DHT22;3643;52.460;13.322;2022-12-07T14:40:27;3.80;99.90
7204;DHT22;3643;52.460;13.322;2022-12-07T14:43:00;3.70;99.90
7204;DHT22;3643;52.460;13.322;2022-12-07T14:45:29;3.70;99.90
7204;DHT22;3643;52.460;13.322;2022-12-07T14:47:59;4.00;99.90
7204;DHT22;3643;52.460;13.322;2022-12-07T14:50:50;3.60;99.90
7204;DHT22;3643;52.460;13.322;2022-12-07T14:53:42;3.50;99.90
7204;DHT22;3643;52.460;13.322;2022-12-07T14:56:19;3.40;99.90
7204;DHT22;3643;52.460;13.322;2022-12-07T14:58:47;3.40;99.90
7204;DHT22;3643;52.460;13.322;2022-12-07T15:01:16;3.30;99.90
7204;DHT22;3643;52.460;13.322;2022-12-07T15:03:45;3.30;99.90
7204;DHT22;3643;52.460;13.322;2022-12-07T15:06:17;3.20;99.90
7204;DHT22;3643;52.460;13.322;2022-12-07T15:08:45;1.90;99.90
7204;DHT22;3643;52.460;13.322;2022-12-07T15:11:15;3.10;99.90
7204;DHT22;3643;52.460;13.322;2022-12-07T15:13:44;3.00;99.90
7204;DHT22;3643;52.460;13.322;2022-12-07T15:16:31;3.00;99.90
7204;DHT22;3643;52.460;13.322;2022-12-07T15:19:22;2.90;99.90
7204;DHT22;3643;52.460;13.322;2022-12-07T15:21:54;2.80;99.90
7204;DHT22;3643;52.460;13.322;2022-12-07T15:24:26;2.80;99.90
7204;DHT22;3643;52.460;13.322;2022-12-07T15:26:54;2.80;99.90
7204;DHT22;3643;52.460;13.322;2022-12-07T15:29:23;2.80;99.90
7204;DHT22;3643;52.460;13.322;2022-12-07T15:31:52;2.80;99.90
7204;DHT22;3643;52.460;13.322;2022-12-07T15:34:27;2.80;99.90
7204;DHT22;3643;52.460;13.322;2022-12-07T15:37:07;2.80;99.90
7204;DHT22;3643;52.460;13.322;2022-12-07T15:39:37;2.90;99.90
7204;DHT22;3643;52.460;13.322;2022-12-07T15:42:06;2.90;99.90
7204;DHT22;3643;52.460;13.322;2022-12-07T15:44:36;3.70;99.90
7204;DHT22;3643;52.460;13.322;2022-12-07T15:47:22;3.00;99.90
7204;DHT22;3643;52.460;13.322;2022-12-07T15:49:51;3.00;99.90
7204;DHT22;3643;52.460;13.322;2022-12-07T15:52:22;3.00;99.90
7204;DHT22;3643;52.460;13.322;2022-12-07T15:54:50;3.00;99.90
7204;DHT22;3643;52.460;13.322;2022-12-07T15:57:19;3.00;99.90
7204;DHT22;3643;52.460;13.322;2022-12-07T15:59:51;3.00;99.90
7204;DHT22;3643;52.460;13.322;2022-12-07T16:02:20;3.00;99.90
7204;DHT22;3643;52.460;13.322;2022-12-07T16:04:51;2.90;99.90
7204;DHT22;3643;52.460;13.322;2022-12-07T16:07:19;2.90;99.90
7204;DHT22;3643;52.460;13.322;2022-12-07T16:09:48;2.80;99.90
7204;DHT22;3643;52.460;13.322;2022-12-07T16:12:17;2.80;99.90
7204;DHT22;3643;52.460;13.322;2022-12-07T16:14:45;2.70;99.90
7204;DHT22;3643;52.460;13.322;2022-12-07T16:17:14;2.70;99.90
7204;DHT22;3643;52.460;13.322;2022-12-07T16:19:42;2.70;99.90
7204;DHT22;3643;52.460;13.322;2022-12-07T16:22:12;2.70;99.90
7204;DHT22;3643;52.460;13.322;2022-12-07T16:24:40;2.60;99.90
7204;DHT22;3643;52.460;13.322;2022-12-07T16:27:09;2.50;99.90
7204;DHT22;3643;52.460;13.322;2022-12-07T16:29:37;2.50;99.90
7204;DHT22;3643;52.460;13.322;2022-12-07T16:32:05;2.40;99.90
7204;DHT22;3643;52.460;13.322;2022-12-07T16:34:34;2.40;99.90
7204;DHT22;3643;52.460;13.322;2022-12-07T16:37:02;2.40;99.90
7204;DHT22;3643;52.460;13.322;2022-12-07T16:39:33;2.40;99.90
7204;DHT22;3643;52.460;13.322;2022-12-07T16:42:02;2.40;99.90
7204;DHT22;3643;52.460;13.322;2022-12-07T16:44:31;2.40;99.90
7204;DHT22;3643;52.460;13.322;2022-12-07T16:46:59;2.30;99.90
7204;DHT22;3643;52.460;13.322;2022-12-07T16:49:30;2.30;99.90
7204;DHT22;3643;52.460;13.322;2022-12-07T16:51:59;2.20;99.90
7204;DHT22;3643;52.460;13.322;2022-12-07T16:54:49;2.20;99.90
7204;DHT22;3643;52.460;13.322;2022-12-07T16:57:18;2.20;99.90
7204;DHT22;3643;52.460;13.322;2022-12-07T16:59:50;2.20;99.90
7204;DHT22;3643;52.460;13.322;2022-12-07T17:02:20;2.10;99.90
7204;DHT22;3643;52.460;13.322;2022-12-07T17:04:51;2.10;99.90
7204;DHT22;3643;52.460;13.322;2022-12-07T17:07:19;1.80;99.90
7204;DHT22;3643;52.460;13.322;2022-12-07T17:09:49;2.10;99.90
7204;DHT22;3643;52.460;13.322;2022-12-07T17:12:19;2.00;99.90
7204;DHT22;3643;52.460;13.322;2022-12-07T17:14:48;3.40;99.90
7204;DHT22;3643;52.460;13.322;2022-12-07T17:17:34;2.00;99.90
7204;DHT22;3643;52.460;13.322;2022-12-07T17:20:03;1.90;99.90
7204;DHT22;3643;52.460;13.322;2022-12-07T17:22:31;1.90;99.90
7204;DHT22;3643;52.460;13.322;2022-12-07T17:25:02;1.90;99.90